Time;durP1;ratioP1;P1;durP2;ratioP2;P2;SDS_P1;SDS_P2;PMS_P1;PMS_P2;Temp;Humidity;BMP_temperature;BMP_pressure;BME280_temperature;BME280_humidity;BME280_pressure;Samples;Min_cycle;Max_cycle;Signal;HPM_P1;HPM_P2
2022/08/21 00:01:57;;;;;;;2.97;1.02;;;20.10;54.10;;;;;;2600942;53;21638;-70
2022/08/21 00:04:24;;;;;;;1.85;0.70;;;20.00;53.50;;;;;;2610336;52;21774;-74
2022/08/21 00:06:51;;;;;;;1.75;0.70;;;20.10;53.50;;;;;;2610270;52;20911;-71
2022/08/21 00:09:20;;;;;;;2.15;0.75;;;20.00;53.40;;;;;;2606472;52;21413;-69
2022/08/21 00:11:47;;;;;;;1.33;0.60;;;19.90;53.50;;;;;;2334359;54;20939;-70
2022/08/21 00:14:16;;;;;;;2.22;0.75;;;19.90;53.50;;;;;;2360456;54;20934;-71
2022/08/21 00:16:42;;;;;;;2.35;0.70;;;19.90;53.50;;;;;;2610668;52;20982;-73
2022/08/21 00:19:09;;;;;;;2.00;0.70;;;19.90;53.50;;;;;;2610076;52;21411;-70
2022/08/21 00:21:35;;;;;;;2.97;0.55;;;19.80;53.50;;;;;;2610329;52;20934;-68
2022/08/21 00:24:02;;;;;;;3.28;0.80;;;19.80;53.60;;;;;;2609089;52;20926;-70
2022/08/21 00:26:28;;;;;;;1.67;0.60;;;19.80;53.80;;;;;;2346072;54;20955;-69
2022/08/21 00:28:55;;;;;;;3.85;1.05;;;19.80;53.70;;;;;;2580831;53;21605;-73
2022/08/21 00:31:21;;;;;;;2.55;0.82;;;19.70;53.80;;;;;;2360479;54;20930;-71
2022/08/21 00:33:47;;;;;;;1.92;0.65;;;19.70;53.90;;;;;;2359806;54;20911;-69
2022/08/21 00:36:14;;;;;;;1.35;0.55;;;19.70;53.80;;;;;;2609833;52;20903;-70
2022/08/21 00:38:41;;;;;;;1.50;0.60;;;19.60;53.80;;;;;;2363856;54;20911;-69
2022/08/21 00:41:08;;;;;;;2.03;0.68;;;19.60;53.80;;;;;;2574567;52;20930;-71
2022/08/21 00:43:35;;;;;;;1.40;0.70;;;19.60;53.80;;;;;;2360971;54;20927;-69
2022/08/21 00:46:04;;;;;;;1.62;0.65;;;19.60;53.80;;;;;;2610161;52;21316;-71
2022/08/21 00:48:31;;;;;;;1.55;0.60;;;19.50;53.80;;;;;;2610883;52;20999;-71
2022/08/21 00:51:02;;;;;;;2.70;0.70;;;19.50;53.80;;;;;;2358321;54;20953;-69
2022/08/21 00:53:29;;;;;;;1.70;0.82;;;19.50;54.10;;;;;;2608055;52;20967;-72
2022/08/21 00:55:55;;;;;;;2.55;0.73;;;19.40;54.00;;;;;;2360266;54;20903;-72
2022/08/21 00:58:21;;;;;;;2.22;0.60;;;19.40;54.00;;;;;;2360538;54;20934;-69
2022/08/21 01:00:48;;;;;;;1.85;0.62;;;19.40;54.00;;;;;;2358917;54;21648;-72
2022/08/21 01:03:16;;;;;;;1.35;0.50;;;19.30;53.90;;;;;;2344269;54;20952;-71
2022/08/21 01:05:45;;;;;;;2.00;0.75;;;19.30;53.90;;;;;;2340105;54;21059;-71
2022/08/21 01:08:11;;;;;;;1.90;0.70;;;19.30;54.00;;;;;;2330387;54;20933;-69
2022/08/21 01:10:37;;;;;;;2.97;0.70;;;19.20;53.90;;;;;;2360641;54;20939;-72
2022/08/21 01:13:08;;;;;;;1.92;0.60;;;19.20;54.00;;;;;;2345097;53;20951;-69
2022/08/21 01:15:36;;;;;;;1.83;0.73;;;19.20;54.10;;;;;;2353693;54;20995;-69
2022/08/21 01:18:04;;;;;;;2.05;0.70;;;19.20;54.30;;;;;;2335291;54;20939;-72
2022/08/21 01:20:31;;;;;;;2.08;0.70;;;19.10;54.30;;;;;;2358613;54;22045;-69
2022/08/21 01:23:00;;;;;;;4.25;0.90;;;19.10;54.30;;;;;;2578526;52;21538;-69
2022/08/21 01:25:28;;;;;;;2.05;0.75;;;19.10;54.30;;;;;;2587747;52;20982;-73
2022/08/21 01:27:56;;;;;;;3.45;0.65;;;19.10;54.30;;;;;;2349387;54;20994;-72
2022/08/21 01:30:24;;;;;;;2.17;0.70;;;19.10;54.30;;;;;;2359528;54;20978;-69
2022/08/21 01:32:50;;;;;;;2.42;0.80;;;19.00;54.30;;;;;;2360576;54;20926;-71
2022/08/21 01:35:18;;;;;;;3.08;0.70;;;19.00;54.30;;;;;;2363290;54;20985;-71
2022/08/21 01:37:44;;;;;;;1.65;0.60;;;19.00;54.30;;;;;;2329026;54;20952;-69
2022/08/21 01:40:11;;;;;;;2.12;0.85;;;18.90;54.20;;;;;;2334697;54;22153;-69
2022/08/21 01:42:40;;;;;;;3.25;0.60;;;18.90;54.30;;;;;;2583247;53;20955;-68
2022/08/21 01:45:07;;;;;;;3.75;0.88;;;18.90;54.30;;;;;;2359837;54;20914;-70
2022/08/21 01:47:33;;;;;;;2.15;0.70;;;18.90;54.30;;;;;;2331343;53;20949;-73
2022/08/21 01:50:00;;;;;;;1.92;0.70;;;18.90;54.30;;;;;;2352631;53;21644;-70
2022/08/21 01:52:26;;;;;;;2.20;0.93;;;18.80;54.20;;;;;;2582184;52;20916;-70
2022/08/21 01:54:52;;;;;;;2.25;0.80;;;18.80;54.30;;;;;;2331619;55;21410;-69
2022/08/21 01:57:19;;;;;;;2.80;0.80;;;18.80;54.30;;;;;;2360565;54;20946;-69
2022/08/21 01:59:45;;;;;;;2.60;0.85;;;18.70;54.30;;;;;;2359685;54;21006;-70
2022/08/21 02:02:14;;;;;;;1.80;0.65;;;18.70;54.40;;;;;;2578783;52;20963;-70
2022/08/21 02:04:46;;;;;;;2.12;0.70;;;18.70;54.40;;;;;;2338280;54;21095;-69
2022/08/21 02:07:12;;;;;;;2.45;0.80;;;18.70;54.50;;;;;;2349523;54;20955;-69
2022/08/21 02:09:41;;;;;;;2.25;0.80;;;18.60;54.40;;;;;;2587349;53;20950;-69
2022/08/21 02:12:09;;;;;;;2.70;0.70;;;18.60;54.50;;;;;;2358970;54;20998;-71
2022/08/21 02:14:36;;;;;;;2.15;0.60;;;18.60;54.50;;;;;;2576858;53;20951;-70
2022/08/21 02:17:02;;;;;;;3.83;0.80;;;18.60;54.50;;;;;;2592297;52;20955;-69
2022/08/21 02:19:29;;;;;;;1.80;0.80;;;18.50;54.50;;;;;;2583821;52;20918;-70
2022/08/21 02:21:55;;;;;;;1.83;0.70;;;18.50;54.50;;;;;;2346438;54;21809;-74
2022/08/21 02:24:21;;;;;;;2.65;1.00;;;18.50;54.50;;;;;;2342111;54;21057;-72
2022/08/21 02:26:47;;;;;;;2.20;0.80;;;18.50;54.60;;;;;;2608338;52;20958;-69
2022/08/21 02:29:14;;;;;;;1.90;0.98;;;18.40;54.60;;;;;;2603641;52;20914;-70
2022/08/21 02:31:42;;;;;;;2.78;0.90;;;18.40;54.60;;;;;;2332838;54;21376;-69
2022/08/21 02:34:11;;;;;;;3.20;0.82;;;18.40;54.70;;;;;;2360051;54;21029;-70
2022/08/21 02:36:37;;;;;;;4.95;0.80;;;18.40;54.90;;;;;;2362735;54;21573;-74
2022/08/21 02:39:04;;;;;;;1.50;0.70;;;18.30;54.80;;;;;;2573477;52;20919;-70
2022/08/21 02:41:31;;;;;;;2.10;0.80;;;18.30;54.80;;;;;;2610756;52;20923;-70
2022/08/21 02:43:58;;;;;;;1.95;0.70;;;18.40;54.80;;;;;;2609171;52;20971;-69
2022/08/21 02:46:24;;;;;;;1.23;0.62;;;18.30;54.80;;;;;;2359279;54;20970;-71
2022/08/21 02:48:51;;;;;;;2.85;0.93;;;18.20;54.70;;;;;;2577225;52;21058;-69
2022/08/21 02:51:18;;;;;;;2.92;0.90;;;18.20;54.90;;;;;;2609039;52;20930;-70
2022/08/21 02:53:45;;;;;;;2.50;0.88;;;18.30;55.10;;;;;;2610541;52;21788;-70
2022/08/21 02:56:13;;;;;;;2.12;0.88;;;18.20;55.10;;;;;;2609951;52;21718;-69
2022/08/21 02:58:43;;;;;;;3.75;0.90;;;18.20;55.10;;;;;;2610155;52;20914;-70
2022/08/21 03:01:09;;;;;;;2.12;0.93;;;18.20;55.30;;;;;;2601374;52;21907;-71
2022/08/21 03:03:38;;;;;;;2.60;0.80;;;18.20;55.30;;;;;;2581944;52;21601;-70
2022/08/21 03:06:05;;;;;;;2.47;0.90;;;18.20;55.30;;;;;;2359317;54;20931;-71
2022/08/21 03:08:31;;;;;;;1.25;0.70;;;18.20;55.20;;;;;;2359609;54;20950;-71
2022/08/21 03:11:00;;;;;;;1.62;0.70;;;18.10;55.10;;;;;;2610536;52;21005;-70
2022/08/21 03:13:28;;;;;;;2.20;0.90;;;18.10;55.10;;;;;;2609595;52;20935;-70
2022/08/21 03:15:55;;;;;;;3.83;1.10;;;18.10;55.10;;;;;;2610513;52;21002;-69
2022/08/21 03:18:22;;;;;;;3.55;0.80;;;18.10;55.10;;;;;;2609606;52;20978;-69
2022/08/21 03:20:48;;;;;;;2.58;0.90;;;18.10;55.10;;;;;;2361132;54;20911;-71
2022/08/21 03:23:15;;;;;;;1.92;0.82;;;18.10;55.20;;;;;;2572517;53;20930;-70
2022/08/21 03:25:41;;;;;;;2.30;0.70;;;18.10;55.20;;;;;;2349711;54;21006;-72
2022/08/21 03:28:12;;;;;;;1.98;0.75;;;18.00;55.10;;;;;;2343845;54;20883;-72
2022/08/21 03:30:40;;;;;;;2.42;0.70;;;18.10;55.30;;;;;;2610042;52;21767;-69
2022/08/21 03:33:06;;;;;;;4.57;1.00;;;18.00;55.20;;;;;;2562550;52;21740;-70
2022/08/21 03:35:32;;;;;;;3.60;0.90;;;18.00;55.30;;;;;;2600974;52;21022;-70
2022/08/21 03:37:59;;;;;;;1.50;0.80;;;18.00;55.30;;;;;;2608803;52;20994;-69
2022/08/21 03:40:25;;;;;;;2.70;1.10;;;18.00;55.30;;;;;;2333437;54;20935;-71
2022/08/21 03:42:52;;;;;;;2.75;0.98;;;18.00;55.30;;;;;;2349520;54;20962;-70
2022/08/21 03:45:20;;;;;;;2.47;0.93;;;18.00;55.40;;;;;;2591819;52;21399;-69
2022/08/21 03:47:55;;;;;;;3.47;1.05;;;18.00;55.40;;;;;;2610902;52;20906;-71
2022/08/21 03:50:23;;;;;;;2.33;0.85;;;18.00;55.40;;;;;;2610608;52;21021;-72
2022/08/21 03:52:49;;;;;;;2.60;0.90;;;17.90;55.30;;;;;;2609078;52;20986;-71
2022/08/21 03:55:15;;;;;;;2.72;0.85;;;17.90;55.20;;;;;;2360078;54;21901;-72
2022/08/21 03:57:42;;;;;;;2.03;0.82;;;17.90;55.20;;;;;;2610564;52;20939;-69
2022/08/21 04:00:11;;;;;;;3.53;0.80;;;17.90;55.30;;;;;;2609132;52;21836;-69
2022/08/21 04:02:38;;;;;;;2.40;0.80;;;17.80;55.20;;;;;;2610900;52;21002;-71
2022/08/21 04:05:05;;;;;;;2.75;0.82;;;17.80;55.20;;;;;;2333550;54;20915;-69
2022/08/21 04:07:31;;;;;;;2.35;0.88;;;17.70;55.70;;;;;;2573173;52;20987;-70
2022/08/21 04:09:59;;;;;;;2.33;0.80;;;17.80;55.30;;;;;;2572091;53;20980;-69
2022/08/21 04:12:25;;;;;;;2.00;0.80;;;17.70;55.20;;;;;;2346198;53;20981;-70
2022/08/21 04:14:52;;;;;;;2.17;1.00;;;17.70;55.30;;;;;;2611047;52;20923;-69
2022/08/21 04:17:18;;;;;;;1.67;0.75;;;17.70;55.30;;;;;;2610376;52;21740;-69
2022/08/21 04:19:45;;;;;;;1.83;0.77;;;17.70;55.30;;;;;;2611082;52;21785;-69
2022/08/21 04:22:13;;;;;;;2.60;0.77;;;17.60;55.30;;;;;;2611644;52;20927;-72
2022/08/21 04:24:45;;;;;;;1.83;0.80;;;17.60;55.30;;;;;;2610564;52;21556;-71
2022/08/21 04:27:11;;;;;;;2.50;0.82;;;17.60;55.40;;;;;;2362514;54;20990;-69
2022/08/21 04:29:37;;;;;;;2.85;0.95;;;17.50;55.40;;;;;;2610859;52;20914;-70
2022/08/21 04:32:05;;;;;;;2.75;0.75;;;17.50;55.50;;;;;;2610363;52;20934;-69
2022/08/21 04:34:32;;;;;;;1.90;0.73;;;17.50;55.50;;;;;;2360255;54;20887;-69
2022/08/21 04:37:00;;;;;;;2.00;0.70;;;17.50;55.60;;;;;;2610975;52;20911;-70
2022/08/21 04:39:26;;;;;;;1.90;0.77;;;17.50;55.70;;;;;;2361269;54;20914;-69
2022/08/21 04:41:53;;;;;;;2.65;0.80;;;17.40;55.70;;;;;;2360936;54;20962;-70
2022/08/21 04:44:20;;;;;;;2.00;0.70;;;17.40;55.70;;;;;;2572737;53;21042;-71
2022/08/21 04:46:49;;;;;;;1.70;0.70;;;17.40;55.80;;;;;;2360634;54;20931;-72
2022/08/21 04:49:15;;;;;;;1.62;0.75;;;17.40;55.90;;;;;;2610552;52;20994;-71
2022/08/21 04:51:42;;;;;;;2.87;1.08;;;17.40;55.90;;;;;;2360829;54;20899;-70
2022/08/21 04:54:14;;;;;;;1.80;0.70;;;17.40;55.80;;;;;;2360577;54;20954;-70
2022/08/21 04:56:50;;;;;;;2.20;0.82;;;17.40;55.80;;;;;;2608034;52;20954;-69
2022/08/21 04:59:19;;;;;;;2.58;0.82;;;17.40;55.80;;;;;;2334220;54;20932;-74
2022/08/21 05:01:46;;;;;;;2.17;0.85;;;17.40;55.90;;;;;;2611424;52;20975;-73
2022/08/21 05:04:16;;;;;;;2.10;0.90;;;17.40;55.90;;;;;;2610775;52;20918;-70
2022/08/21 05:06:44;;;;;;;4.50;1.02;;;17.30;55.80;;;;;;2609349;52;21049;-73
2022/08/21 05:09:11;;;;;;;2.42;0.82;;;17.30;56.00;;;;;;2594282;52;20962;-70
2022/08/21 05:11:38;;;;;;;4.03;1.00;;;17.30;56.20;;;;;;2345764;54;20926;-70
2022/08/21 05:14:04;;;;;;;2.15;0.90;;;17.30;56.20;;;;;;2344781;54;21983;-70
2022/08/21 05:16:30;;;;;;;1.83;0.70;;;17.40;56.40;;;;;;2594013;52;21042;-69
2022/08/21 05:18:58;;;;;;;1.83;0.82;;;17.40;56.30;;;;;;2594362;52;20935;-74
2022/08/21 05:21:24;;;;;;;2.65;0.90;;;17.40;56.30;;;;;;2560489;52;20968;-74
2022/08/21 05:23:51;;;;;;;1.65;0.75;;;17.40;56.30;;;;;;2581974;52;21102;-70
2022/08/21 05:26:20;;;;;;;2.67;0.80;;;17.40;56.30;;;;;;2592904;52;20962;-70
2022/08/21 05:28:47;;;;;;;2.42;0.82;;;17.40;56.40;;;;;;2590999;52;20935;-71
2022/08/21 05:31:13;;;;;;;2.05;0.90;;;17.40;56.30;;;;;;2592561;52;21005;-71
2022/08/21 05:33:40;;;;;;;2.35;0.85;;;17.40;56.40;;;;;;2344560;54;21904;-69
2022/08/21 05:36:06;;;;;;;2.80;0.80;;;17.40;57.00;;;;;;2344156;54;20918;-71
2022/08/21 05:38:32;;;;;;;2.30;0.82;;;17.40;56.50;;;;;;2343538;54;21925;-69
2022/08/21 05:40:59;;;;;;;2.28;0.80;;;17.40;56.50;;;;;;2591301;52;20955;-73
2022/08/21 05:43:25;;;;;;;2.30;0.80;;;17.40;56.60;;;;;;2343389;54;20958;-68
2022/08/21 05:45:51;;;;;;;2.40;0.80;;;17.40;56.60;;;;;;2591768;52;21821;-69
2022/08/21 05:48:20;;;;;;;3.40;1.05;;;17.50;56.70;;;;;;2343325;54;20946;-71
2022/08/21 05:50:47;;;;;;;5.20;1.23;;;17.50;56.80;;;;;;2592469;52;21046;-71
2022/08/21 05:53:13;;;;;;;2.22;1.02;;;17.50;56.90;;;;;;2344842;54;20942;-70
2022/08/21 05:55:41;;;;;;;2.47;0.90;;;17.50;57.00;;;;;;2582878;52;21095;-70
2022/08/21 05:58:11;;;;;;;2.65;0.90;;;17.60;57.20;;;;;;2553748;53;20979;-73
2022/08/21 06:00:38;;;;;;;2.70;1.00;;;17.60;57.20;;;;;;2320788;54;21110;-71
2022/08/21 06:03:09;;;;;;;3.75;1.20;;;17.60;57.30;;;;;;2274604;54;21061;-69
2022/08/21 06:05:35;;;;;;;1.85;1.00;;;17.60;57.40;;;;;;2273836;54;21106;-71
2022/08/21 06:08:03;;;;;;;4.28;1.85;;;17.70;57.50;;;;;;2257549;54;21080;-71
2022/08/21 06:10:42;;;;;;;3.05;1.58;;;17.70;57.50;;;;;;2289116;54;20937;-68
2022/08/21 06:13:08;;;;;;;3.33;1.10;;;17.70;57.80;;;;;;2303352;54;21022;-74
2022/08/21 06:15:35;;;;;;;4.05;1.27;;;17.80;57.70;;;;;;2304700;54;20994;-69
2022/08/21 06:18:02;;;;;;;4.57;1.23;;;17.80;57.80;;;;;;2307216;53;21121;-73
2022/08/21 06:20:28;;;;;;;3.87;1.15;;;17.80;57.90;;;;;;2541527;53;21463;-72
2022/08/21 06:22:55;;;;;;;3.08;1.15;;;17.90;58.00;;;;;;2285302;54;21035;-69
2022/08/21 06:25:22;;;;;;;3.75;1.35;;;18.00;58.20;;;;;;2534129;53;20960;-70
2022/08/21 06:27:48;;;;;;;3.60;1.17;;;18.00;58.30;;;;;;2533805;53;21278;-69
2022/08/21 06:30:15;;;;;;;2.05;1.05;;;18.10;58.30;;;;;;2533155;53;21028;-71
2022/08/21 06:32:41;;;;;;;2.92;1.27;;;18.20;58.40;;;;;;2542720;53;21324;-71
2022/08/21 06:35:08;;;;;;;3.62;1.60;;;18.20;58.40;;;;;;2539639;53;20947;-70
2022/08/21 06:37:34;;;;;;;3.62;1.10;;;18.30;58.60;;;;;;2541882;53;21053;-69
2022/08/21 06:40:01;;;;;;;3.50;1.30;;;18.30;58.50;;;;;;2541371;53;21562;-69
2022/08/21 06:42:27;;;;;;;4.65;1.40;;;18.40;58.70;;;;;;2296628;53;21563;-73
2022/08/21 06:44:54;;;;;;;3.28;1.48;;;18.50;58.80;;;;;;2296293;54;20963;-70
2022/08/21 06:47:20;;;;;;;3.25;1.37;;;18.50;58.80;;;;;;2533485;53;21006;-70
2022/08/21 06:49:47;;;;;;;4.72;1.40;;;18.60;59.00;;;;;;2296478;53;20923;-74
2022/08/21 06:52:13;;;;;;;3.50;1.12;;;18.60;58.90;;;;;;2544790;53;21937;-71
2022/08/21 06:54:40;;;;;;;2.83;1.27;;;18.80;59.00;;;;;;2298500;54;20988;-71
2022/08/21 06:57:06;;;;;;;4.57;1.20;;;18.80;59.00;;;;;;2534666;53;20923;-72
2022/08/21 06:59:32;;;;;;;4.50;1.35;;;18.90;59.10;;;;;;2534187;53;21034;-72
2022/08/21 07:02:00;;;;;;;3.35;1.25;;;19.00;59.20;;;;;;2533957;53;20924;-69
2022/08/21 07:04:26;;;;;;;3.03;1.20;;;19.10;59.20;;;;;;2533586;53;21397;-70
2022/08/21 07:06:52;;;;;;;2.25;1.00;;;19.20;59.20;;;;;;2534495;53;20991;-72
2022/08/21 07:09:18;;;;;;;3.17;0.98;;;19.20;59.20;;;;;;2533473;53;20947;-71
2022/08/21 07:11:49;;;;;;;3.05;1.30;;;19.30;59.30;;;;;;2296683;54;20967;-72
2022/08/21 07:14:15;;;;;;;4.65;1.55;;;19.40;59.50;;;;;;2533175;53;21954;-70
2022/08/21 07:16:42;;;;;;;4.10;1.08;;;19.50;59.50;;;;;;2296070;54;20991;-70
2022/08/21 07:19:08;;;;;;;3.10;1.30;;;19.60;59.60;;;;;;2533785;53;20899;-73
2022/08/21 07:21:34;;;;;;;5.35;1.30;;;19.80;59.70;;;;;;2534722;53;20944;-70
2022/08/21 07:24:01;;;;;;;2.53;1.15;;;19.80;59.80;;;;;;2295782;57;21206;-72
2022/08/21 07:26:27;;;;;;;2.92;1.17;;;19.90;59.90;;;;;;2294615;58;21125;-71
2022/08/21 07:28:53;;;;;;;6.30;1.50;;;20.00;59.90;;;;;;2529418;53;20970;-69
2022/08/21 07:31:21;;;;;;;3.28;1.20;;;20.30;60.00;;;;;;2544297;53;20990;-72
2022/08/21 07:33:48;;;;;;;3.12;1.20;;;20.30;60.00;;;;;;2302947;54;21075;-71
2022/08/21 07:36:14;;;;;;;3.78;1.12;;;20.30;59.80;;;;;;2296020;53;21509;-71
2022/08/21 07:38:41;;;;;;;3.30;1.20;;;20.40;59.90;;;;;;2533284;53;20935;-74
2022/08/21 07:41:16;;;;;;;3.30;1.08;;;20.50;59.90;;;;;;2534329;53;20999;-72
2022/08/21 07:43:42;;;;;;;2.75;1.27;;;20.70;60.00;;;;;;2296374;53;20979;-70
2022/08/21 07:46:09;;;;;;;3.80;1.35;;;20.80;59.90;;;;;;2533349;53;21007;-69
2022/08/21 07:48:35;;;;;;;3.10;1.02;;;20.90;59.80;;;;;;2533346;53;21101;-71
2022/08/21 07:51:05;;;;;;;2.87;0.80;;;21.00;59.70;;;;;;2532496;53;20952;-71
2022/08/21 07:53:31;;;;;;;3.28;1.10;;;21.10;59.60;;;;;;2293831;54;21496;-73
2022/08/21 07:55:59;;;;;;;2.37;1.00;;;21.20;59.50;;;;;;2294582;54;21011;-72
2022/08/21 07:58:25;;;;;;;3.05;1.10;;;21.30;59.50;;;;;;2291781;55;21072;-73
2022/08/21 08:00:51;;;;;;;3.03;1.00;;;21.40;59.40;;;;;;2296404;54;21011;-73
2022/08/21 08:03:18;;;;;;;2.90;1.15;;;21.50;59.30;;;;;;2304953;54;21069;-72
2022/08/21 08:05:45;;;;;;;2.37;0.98;;;21.60;59.10;;;;;;2305050;54;20991;-73
2022/08/21 08:08:11;;;;;;;2.25;1.08;;;21.70;59.50;;;;;;2534169;53;20999;-72
2022/08/21 08:10:37;;;;;;;2.90;1.17;;;21.70;58.70;;;;;;2296445;54;21066;-74
2022/08/21 08:13:04;;;;;;;4.03;1.20;;;21.90;58.70;;;;;;2535150;53;21004;-73
2022/08/21 08:15:30;;;;;;;2.50;0.95;;;22.00;58.60;;;;;;2550795;53;20959;-74
2022/08/21 08:17:59;;;;;;;3.05;0.90;;;22.00;58.40;;;;;;2296526;54;20923;-75
2022/08/21 08:20:26;;;;;;;3.58;1.08;;;22.10;58.20;;;;;;2534421;53;21394;-73
2022/08/21 08:22:53;;;;;;;3.45;1.25;;;22.20;58.00;;;;;;2296423;54;20948;-77
2022/08/21 08:25:20;;;;;;;2.40;0.85;;;22.30;58.00;;;;;;2295877;54;21067;-75
2022/08/21 08:27:46;;;;;;;2.25;0.82;;;22.40;58.00;;;;;;2297804;54;20979;-77
2022/08/21 08:30:13;;;;;;;2.90;1.05;;;22.40;57.90;;;;;;2296380;54;20954;-79
2022/08/21 08:32:40;;;;;;;2.87;0.88;;;22.50;58.00;;;;;;2533657;53;21023;-76
2022/08/21 08:35:07;;;;;;;3.55;1.33;;;22.60;58.10;;;;;;2296423;54;21392;-76
2022/08/21 08:37:33;;;;;;;4.00;1.10;;;22.70;58.10;;;;;;2308835;54;20982;-76
2022/08/21 08:40:00;;;;;;;3.58;0.95;;;22.80;58.00;;;;;;2308450;54;20898;-74
2022/08/21 08:42:34;;;;;;;3.10;1.15;;;22.90;58.00;;;;;;2304586;54;21599;-75
2022/08/21 08:45:08;;;;;;;5.12;1.15;;;23.00;58.00;;;;;;2534165;53;20939;-77
2022/08/21 08:47:44;;;;;;;3.28;1.10;;;23.10;57.80;;;;;;2539104;53;21010;-74
2022/08/21 08:52:44;;;;;;;3.85;1.20;;;23.20;57.70;;;;;;2544807;53;21043;-79
2022/08/21 08:55:26;;;;;;;2.60;0.80;;;23.40;57.60;;;;;;2534336;53;21094;-75
2022/08/21 08:57:55;;;;;;;2.60;1.00;;;23.50;58.00;;;;;;2534966;53;20989;-76
2022/08/21 09:00:21;;;;;;;4.05;1.30;;;23.60;57.50;;;;;;2311861;54;20939;-77
2022/08/21 09:02:48;;;;;;;4.60;1.40;;;23.70;57.50;;;;;;2550792;53;21057;-76
2022/08/21 09:06:54;;;;;;;3.08;1.10;;;23.80;57.20;;;;;;2315277;54;20973;-77
2022/08/21 09:09:38;;;;;;;3.22;1.10;;;23.90;57.00;;;;;;2544774;53;20941;-77
2022/08/21 09:12:17;;;;;;;2.50;1.05;;;24.00;56.30;;;;;;2534365;53;20927;-75
2022/08/21 09:14:56;;;;;;;4.47;1.48;;;24.10;56.40;;;;;;2296681;54;20930;-75
2022/08/21 09:17:55;;;;;;;4.47;1.20;;;24.20;56.00;;;;;;2297071;54;20987;-78
2022/08/21 09:20:38;;;;;;;2.70;1.10;;;24.30;55.90;;;;;;2534399;53;20891;-77
2022/08/21 09:25:42;;;;;;;3.05;1.30;;;24.30;55.90;;;;;;2296488;54;21321;-75
2022/08/21 09:28:11;;;;;;;2.60;1.00;;;24.50;55.90;;;;;;2533079;53;21076;-76
2022/08/21 09:30:38;;;;;;;3.33;1.20;;;24.60;55.70;;;;;;2293295;54;20947;-75
2022/08/21 09:33:06;;;;;;;6.80;1.55;;;24.60;55.50;;;;;;2295892;54;21054;-76
2022/08/21 09:35:34;;;;;;;3.33;1.35;;;24.70;55.40;;;;;;2534361;53;20931;-76
2022/08/21 09:38:05;;;;;;;3.75;1.20;;;24.80;55.20;;;;;;2535980;53;21087;-75
2022/08/21 09:40:42;;;;;;;3.08;1.33;;;24.80;55.10;;;;;;2311152;54;21379;-75
2022/08/21 09:43:26;;;;;;;2.58;1.02;;;24.90;54.80;;;;;;2528494;53;20986;-75
2022/08/21 09:46:53;;;;;;;4.10;1.20;;;25.00;54.40;;;;;;2296825;54;20959;-78
2022/08/21 09:49:30;;;;;;;3.58;1.12;;;25.00;54.30;;;;;;2534247;53;20943;-75
2022/08/21 09:51:59;;;;;;;2.65;1.10;;;25.10;54.30;;;;;;2533125;53;22011;-75
2022/08/21 09:54:35;;;;;;;3.58;1.02;;;25.20;54.60;;;;;;2297485;54;22294;-75
2022/08/21 10:00:38;;;;;;;3.17;1.20;;;25.30;53.90;;;;;;2534954;53;21929;-75
2022/08/21 10:03:10;;;;;;;2.62;1.00;;;25.40;53.60;;;;;;2297031;54;20931;-75
2022/08/21 10:05:37;;;;;;;3.10;1.02;;;25.50;53.70;;;;;;2534659;53;20928;-78
2022/08/21 10:08:05;;;;;;;2.83;1.00;;;25.50;53.80;;;;;;2534917;53;21596;-76
2022/08/21 10:10:36;;;;;;;3.67;1.23;;;25.60;53.70;;;;;;2297029;54;21078;-75
2022/08/21 10:13:17;;;;;;;3.47;1.20;;;25.70;53.40;;;;;;2534257;53;20935;-75
2022/08/21 10:16:23;;;;;;;3.10;1.10;;;25.90;53.50;;;;;;2296855;54;20928;-75
2022/08/21 10:22:04;;;;;;;3.75;1.10;;;25.80;53.20;;;;;;2534922;53;20951;-76
2022/08/21 10:28:06;;;;;;;3.28;1.00;;;25.90;53.20;;;;;;2534572;53;21945;-78
2022/08/21 10:30:56;;;;;;;3.42;1.08;;;26.10;53.40;;;;;;2298053;54;20931;-75
2022/08/21 10:34:06;;;;;;;4.05;1.00;;;26.30;52.90;;;;;;2296576;54;20999;-78
2022/08/21 10:36:35;;;;;;;4.68;1.10;;;26.40;52.00;;;;;;2282082;54;20947;-77
2022/08/21 10:40:06;;;;;;;7.72;1.08;;;26.50;52.50;;;;;;2506641;54;21083;-76
2022/08/21 10:42:41;;;;;;;3.50;1.10;;;26.60;51.90;;;;;;2277936;54;21056;-78
2022/08/21 10:45:36;;;;;;;3.55;0.98;;;26.60;51.90;;;;;;2300548;53;20964;-77
2022/08/21 10:48:05;;;;;;;4.43;1.10;;;26.70;51.90;;;;;;2278832;54;21078;-76
2022/08/21 10:50:38;;;;;;;2.50;0.90;;;26.80;52.00;;;;;;2306050;53;21946;-76
2022/08/21 10:53:35;;;;;;;3.83;1.10;;;26.80;51.70;;;;;;2545498;53;20945;-79
2022/08/21 10:56:47;;;;;;;2.30;1.08;;;26.90;50.70;;;;;;2557271;52;21097;-75
2022/08/21 11:00:45;;;;;;;2.47;0.90;;;27.00;50.50;;;;;;2337328;54;20945;-75
2022/08/21 11:03:27;;;;;;;2.03;0.80;;;27.10;50.70;;;;;;2340234;54;20966;-75
2022/08/21 11:06:04;;;;;;;3.75;0.80;;;27.20;50.20;;;;;;2339256;53;21604;-74
2022/08/21 11:08:38;;;;;;;3.00;0.80;;;27.20;50.00;;;;;;2581795;53;20969;-75
2022/08/21 11:11:08;;;;;;;2.40;0.82;;;27.20;50.10;;;;;;2554241;53;21021;-75
2022/08/21 11:13:44;;;;;;;3.58;0.85;;;27.20;49.60;;;;;;2338702;53;20991;-75
2022/08/21 11:19:45;;;;;;;2.58;0.88;;;27.30;49.00;;;;;;2345411;53;20952;-77
2022/08/21 11:22:27;;;;;;;2.08;0.80;;;27.50;49.60;;;;;;2341923;53;20941;-74
2022/08/21 11:25:07;;;;;;;3.12;0.90;;;27.60;49.10;;;;;;2346207;53;21046;-78
2022/08/21 11:27:54;;;;;;;3.42;1.00;;;27.60;48.70;;;;;;2342721;53;20916;-77
2022/08/21 11:30:21;;;;;;;1.70;0.62;;;27.60;48.80;;;;;;2342817;53;21766;-75
2022/08/21 11:35:54;;;;;;;2.05;0.90;;;27.60;48.90;;;;;;2342499;53;21608;-76
2022/08/21 11:38:35;;;;;;;2.17;0.73;;;27.80;48.80;;;;;;2342444;53;20904;-74
2022/08/21 11:41:25;;;;;;;3.03;0.85;;;27.80;48.40;;;;;;2343236;53;21484;-74
2022/08/21 11:44:39;;;;;;;3.12;0.70;;;27.90;47.80;;;;;;2588685;53;21466;-74
2022/08/21 11:52:10;;;;;;;1.05;0.50;;;27.90;47.80;;;;;;2343454;53;21015;-75
2022/08/21 11:54:49;;;;;;;1.73;0.77;;;28.00;48.30;;;;;;2342503;53;21344;-74
2022/08/21 11:57:29;;;;;;;1.65;0.70;;;28.10;48.10;;;;;;2588450;53;20993;-78
2022/08/21 12:00:14;;;;;;;2.30;0.80;;;28.20;47.70;;;;;;2576005;53;20983;-80
2022/08/21 12:02:56;;;;;;;1.80;0.57;;;28.20;47.50;;;;;;2336463;53;20939;-74
2022/08/21 12:05:26;;;;;;;2.37;0.80;;;28.20;47.40;;;;;;2556188;53;20917;-75
2022/08/21 12:10:33;;;;;;;2.80;0.70;;;28.20;47.60;;;;;;2330968;53;20936;-75
2022/08/21 12:13:33;;;;;;;1.17;0.40;;;28.40;47.40;;;;;;2292704;55;21337;-74
2022/08/21 12:16:12;;;;;;;2.20;0.60;;;28.40;46.70;;;;;;2562443;53;20895;-75
2022/08/21 12:18:39;;;;;;;1.58;0.50;;;28.40;47.10;;;;;;2588143;53;21530;-74
2022/08/21 12:21:24;;;;;;;1.45;0.60;;;28.50;47.10;;;;;;2325830;53;20909;-75
2022/08/21 12:25:05;;;;;;;1.77;0.70;;;28.50;46.50;;;;;;2554378;53;20987;-74
2022/08/21 12:27:52;;;;;;;2.60;0.70;;;28.50;45.90;;;;;;2581713;53;20929;-74
2022/08/21 12:30:53;;;;;;;2.53;0.77;;;28.60;46.10;;;;;;2581445;53;20985;-73
2022/08/21 12:33:37;;;;;;;2.87;0.75;;;28.70;45.60;;;;;;2323614;54;21026;-75
2022/08/21 12:36:14;;;;;;;2.58;0.70;;;28.70;45.80;;;;;;2542827;53;21177;-74
2022/08/21 12:39:24;;;;;;;1.95;0.70;;;28.70;45.80;;;;;;2332456;54;21027;-74
2022/08/21 12:42:20;;;;;;;2.50;0.80;;;28.80;45.60;;;;;;2327341;54;21509;-75
2022/08/21 12:44:50;;;;;;;1.70;0.68;;;28.80;45.60;;;;;;2581291;53;21768;-74
2022/08/21 12:47:35;;;;;;;2.40;0.60;;;28.90;45.60;;;;;;2563103;53;21042;-77
2022/08/21 12:50:11;;;;;;;1.90;0.60;;;29.00;44.60;;;;;;2329250;54;20922;-73
2022/08/21 12:52:41;;;;;;;1.92;0.70;;;29.00;45.20;;;;;;2339290;55;21016;-75
2022/08/21 12:55:12;;;;;;;2.65;0.90;;;29.00;45.20;;;;;;2580954;53;21037;-74
2022/08/21 12:57:39;;;;;;;2.55;0.90;;;29.10;45.20;;;;;;2309350;55;21099;-74
2022/08/21 13:00:17;;;;;;;1.90;0.75;;;29.00;44.90;;;;;;2311722;54;21762;-76
2022/08/21 13:02:47;;;;;;;2.17;0.68;;;29.10;44.90;;;;;;2316752;54;20958;-75
2022/08/21 13:05:34;;;;;;;1.48;0.57;;;29.20;44.50;;;;;;2550332;53;20942;-75
2022/08/21 13:08:05;;;;;;;1.37;0.40;;;29.20;44.20;;;;;;2336210;55;21004;-76
2022/08/21 13:10:35;;;;;;;1.23;0.57;;;29.20;44.10;;;;;;2333470;55;21037;-76
2022/08/21 13:13:05;;;;;;;1.52;0.55;;;29.30;44.40;;;;;;2333778;53;20922;-74
2022/08/21 13:15:34;;;;;;;1.55;0.60;;;29.30;44.20;;;;;;2567578;52;21940;-74
2022/08/21 13:18:02;;;;;;;1.98;0.70;;;29.30;43.70;;;;;;2312817;53;21556;-74
2022/08/21 13:20:35;;;;;;;2.62;0.70;;;29.30;43.80;;;;;;2542405;53;20926;-74
2022/08/21 13:23:02;;;;;;;1.23;0.50;;;29.40;43.50;;;;;;2309539;54;21049;-74
2022/08/21 13:25:33;;;;;;;2.08;0.50;;;29.50;43.70;;;;;;2549804;53;21002;-74
2022/08/21 13:28:11;;;;;;;2.05;0.40;;;29.50;43.20;;;;;;2310339;53;20930;-73
2022/08/21 13:30:43;;;;;;;1.25;0.45;;;29.50;42.50;;;;;;2310277;54;20989;-73
2022/08/21 13:33:10;;;;;;;1.50;0.60;;;29.60;43.10;;;;;;2549608;53;21057;-74
2022/08/21 13:42:27;;;;;;;1.77;0.50;;;29.60;43.00;;;;;;2309083;53;20929;-76
2022/08/21 13:44:54;;;;;;;1.77;0.50;;;29.80;43.10;;;;;;2561623;53;21433;-73
2022/08/21 13:47:21;;;;;;;1.02;0.45;;;29.80;42.90;;;;;;2342002;53;21042;-74